地図

経路データ

SID SEASON NUMBER BASIN SUBBASIN NAME ISO_TIME NATURE LAT LON WMO_WIND WMO_PRES WMO_AGENCY TRACK_TYPE DIST2LAND LANDFALL IFLAG USA_AGENCY USA_ATCF_ID USA_LAT USA_LON USA_RECORD USA_STATUS USA_WIND USA_PRES USA_SSHS USA_R34_NE USA_R34_SE USA_R34_SW USA_R34_NW USA_R50_NE USA_R50_SE USA_R50_SW USA_R50_NW USA_R64_NE USA_R64_SE USA_R64_SW USA_R64_NW USA_POCI USA_ROCI USA_RMW USA_EYE TOKYO_LAT TOKYO_LON TOKYO_GRADE TOKYO_WIND TOKYO_PRES TOKYO_R50_DIR TOKYO_R50_LONG TOKYO_R50_SHORT TOKYO_R30_DIR TOKYO_R30_LONG TOKYO_R30_SHORT TOKYO_LAND CMA_LAT CMA_LON CMA_CAT CMA_WIND CMA_PRES HKO_LAT HKO_LON HKO_CAT HKO_WIND HKO_PRES NEWDELHI_LAT NEWDELHI_LON NEWDELHI_GRADE NEWDELHI_WIND NEWDELHI_PRES NEWDELHI_CI NEWDELHI_DP NEWDELHI_POCI REUNION_LAT REUNION_LON REUNION_TYPE REUNION_WIND REUNION_PRES REUNION_TNUM REUNION_CI REUNION_RMW REUNION_R34_NE REUNION_R34_SE REUNION_R34_SW REUNION_R34_NW REUNION_R50_NE REUNION_R50_SE REUNION_R50_SW REUNION_R50_NW REUNION_R64_NE REUNION_R64_SE REUNION_R64_SW REUNION_R64_NW BOM_LAT BOM_LON BOM_TYPE BOM_WIND BOM_PRES BOM_TNUM BOM_CI BOM_RMW BOM_R34_NE BOM_R34_SE BOM_R34_SW BOM_R34_NW BOM_R50_NE BOM_R50_SE BOM_R50_SW BOM_R50_NW BOM_R64_NE BOM_R64_SE BOM_R64_SW BOM_R64_NW BOM_ROCI BOM_POCI BOM_EYE BOM_POS_METHOD BOM_PRES_METHOD NADI_LAT NADI_LON NADI_CAT NADI_WIND NADI_PRES WELLINGTON_LAT WELLINGTON_LON WELLINGTON_WIND WELLINGTON_PRES DS824_LAT DS824_LON DS824_STAGE DS824_WIND DS824_PRES TD9636_LAT TD9636_LON TD9636_STAGE TD9636_WIND TD9636_PRES TD9635_LAT TD9635_LON TD9635_WIND TD9635_PRES TD9635_ROCI NEUMANN_LAT NEUMANN_LON NEUMANN_CLASS NEUMANN_WIND NEUMANN_PRES MLC_LAT MLC_LON MLC_CLASS MLC_WIND MLC_PRES USA_GUST BOM_GUST BOM_GUST_PER REUNION_GUST REUNION_GUST_PER USA_SEAHGT USA_SEARAD_NE USA_SEARAD_SE USA_SEARAD_SW USA_SEARAD_NW STORM_SPEED STORM_DIR
1946101S10060 1946 27 SI MM NOT_NAMED 1946-04-11 06:00:00 NR -10.0000 60.1000 reunion main 1159 1146 _____O________ -1 -10.0000 60.1000 99 9.90000 3 234
1946101S10060 1946 27 SI MM NOT_NAMED 1946-04-11 09:00:00 NR -10.0730 59.9933 main 1146 1137 _____P________ -1 -10.0730 59.9933 99 3 235
1946101S10060 1946 27 SI MM NOT_NAMED 1946-04-11 12:00:00 NR -10.1498 59.8836 main 1137 1123 _____P________ -1 -10.1498 59.8836 99 3 234
1946101S10060 1946 27 SI MM NOT_NAMED 1946-04-11 15:00:00 NR -10.2340 59.7681 main 1123 1109 _____P________ -1 -10.2340 59.7681 99 3 233
1946101S10060 1946 27 SI MM NOT_NAMED 1946-04-11 18:00:00 NR -10.3296 59.6439 main 1099 1085 _____P________ -1 -10.3296 59.6439 99 3 231
1946101S10060 1946 27 SI MM NOT_NAMED 1946-04-11 21:00:00 NR -10.4402 59.5079 main 1085 1068 _____P________ -1 -10.4402 59.5079 99 4 230
1946101S10060 1946 27 SI MM NOT_NAMED 1946-04-12 00:00:00 NR -10.5696 59.3572 main 1068 1044 _____P________ -1 -10.5696 59.3572 99 4 228
1946101S10060 1946 27 SI MM NOT_NAMED 1946-04-12 03:00:00 NR -10.7217 59.1889 main 1044 1018 _____P________ -1 -10.7217 59.1889 99 5 227
1946101S10060 1946 27 SI MM NOT_NAMED 1946-04-12 06:00:00 NR -10.9000 59.0000 reunion main 1018 990 _____O________ -1 -10.9000 59.0000 99 9.90000 6 225
1946101S10060 1946 27 SI MM NOT_NAMED 1946-04-12 09:00:00 NR -11.1070 58.7892 main 990 963 _____P________ -1 -11.1070 58.7892 99 6 224
1946101S10060 1946 27 SI MM NOT_NAMED 1946-04-12 12:00:00 NR -11.3393 58.5624 main 963 923 _____P________ -1 -11.3393 58.5624 99 7 223
1946101S10060 1946 27 SI MM NOT_NAMED 1946-04-12 15:00:00 NR -11.5922 58.3273 main 923 896 _____P________ -1 -11.5922 58.3273 99 7 222
1946101S10060 1946 27 SI MM NOT_NAMED 1946-04-12 18:00:00 NR -11.8609 58.0917 main 893 866 _____P________ -1 -11.8609 58.0917 99 7 220
1946101S10060 1946 27 SI MM NOT_NAMED 1946-04-12 21:00:00 NR -12.1407 57.8633 main 866 838 _____P________ -1 -12.1407 57.8633 99 7 217
1946101S10060 1946 27 SI MM NOT_NAMED 1946-04-13 00:00:00 NR -12.4269 57.6500 main 827 805 _____P________ -1 -12.4269 57.6500 99 7 214
1946101S10060 1946 27 SI MM NOT_NAMED 1946-04-13 03:00:00 NR -12.7149 57.4596 main 805 773 _____P________ -1 -12.7149 57.4596 99 7 211
1946101S10060 1946 27 SI MM NOT_NAMED 1946-04-13 06:00:00 NR -13.0000 57.3000 reunion main 773 746 _____O________ -1 -13.0000 57.3000 99 9.90000 6 211
1946101S10060 1946 27 SI MM NOT_NAMED 1946-04-13 09:00:00 NR -13.2504 57.1294 main 742 725 _____P________ -1 -13.2504 57.1294 99 6 212
1946101S10060 1946 27 SI MM NOT_NAMED 1946-04-13 12:00:00 NR -13.4994 56.9801 main 725 709 _____P________ -1 -13.4994 56.9801 99 6 208
1946101S10060 1946 27 SI MM NOT_NAMED 1946-04-13 15:00:00 NR -13.7494 56.8605 main 709 686 _____P________ -1 -13.7494 56.8605 99 5 201
1946101S10060 1946 27 SI MM NOT_NAMED 1946-04-13 18:00:00 NR -14.0028 56.7787 main 686 665 _____P________ -1 -14.0028 56.7787 99 5 192
1946101S10060 1946 27 SI MM NOT_NAMED 1946-04-13 21:00:00 NR -14.2622 56.7434 main 654 631 _____P________ -1 -14.2622 56.7434 99 5 0
1946101S10060 1946 27 SI MM NOT_NAMED 1946-04-14 00:00:00 NR -14.5299 56.7628 main 631 597 _____P________ -1 -14.5299 56.7628 99 6 170
1946101S10060 1946 27 SI MM NOT_NAMED 1946-04-14 03:00:00 NR -14.8084 56.8455 main 597 561 _____P________ -1 -14.8084 56.8455 99 6 158
1946101S10060 1946 27 SI MM NOT_NAMED 1946-04-14 06:00:00 NR -15.1000 57.0000 reunion main 561 515 _____O________ -1 -15.1000 57.0000 99 9.90000 8 152
1946101S10060 1946 27 SI MM NOT_NAMED 1946-04-14 09:00:00 NR -15.4919 57.2182 main 515 469 _____P________ -1 -15.4919 57.2182 99 9 149
1946101S10060 1946 27 SI MM NOT_NAMED 1946-04-14 12:00:00 NR -15.9066 57.5098 main 469 425 _____P________ -1 -15.9066 57.5098 99 10 143
1946101S10060 1946 27 SI MM NOT_NAMED 1946-04-14 15:00:00 NR -16.3248 57.8661 main 425 384 _____P________ -1 -16.3248 57.8661 99 11 138
1946101S10060 1946 27 SI MM NOT_NAMED 1946-04-14 18:00:00 NR -16.7275 58.2782 main 385 351 _____P________ -1 -16.7275 58.2782 99 11 133
1946101S10060 1946 27 SI MM NOT_NAMED 1946-04-14 21:00:00 NR -17.0954 58.7371 main 351 336 _____P________ -1 -17.0954 58.7371 99 11 127
1946101S10060 1946 27 SI MM NOT_NAMED 1946-04-15 00:00:00 NR -17.4094 59.2336 main 340 336 _____P________ -1 -17.4094 59.2336 99 11 120
1946101S10060 1946 27 SI MM NOT_NAMED 1946-04-15 03:00:00 NR -17.6506 59.7578 main 347 347 _____P________ -1 -17.6506 59.7578 99 11 111
1946101S10060 1946 27 SI MM NOT_NAMED 1946-04-15 06:00:00 NR -17.8000 60.3000 reunion main 375 375 _____O________ -1 -17.8000 60.3000 99 9.90000 11 97
1946101S10060 1946 27 SI MM NOT_NAMED 1946-04-15 09:00:00 NR -17.7887 60.8727 main 423 423 _____P________ -1 -17.7887 60.8727 99 11 84
1946101S10060 1946 27 SI MM NOT_NAMED 1946-04-15 12:00:00 NR -17.6849 61.4776 main 481 481 _____P________ -1 -17.6849 61.4776 99 12 76
1946101S10060 1946 27 SI MM NOT_NAMED 1946-04-15 15:00:00 NR -17.5077 62.0967 main 546 546 _____P________ -1 -17.5077 62.0967 99 12 71
1946101S10060 1946 27 SI MM NOT_NAMED 1946-04-15 18:00:00 NR -17.2762 62.7125 main 612 612 _____P________ -1 -17.2762 62.7125 99 13 67
1946101S10060 1946 27 SI MM NOT_NAMED 1946-04-15 21:00:00 NR -17.0099 63.3075 main 684 684 _____P________ -1 -17.0099 63.3075 99 12 64
1946101S10060 1946 27 SI MM NOT_NAMED 1946-04-16 00:00:00 NR -16.7285 63.8648 main 756 756 _____P________ -1 -16.7285 63.8648 99 12 61
1946101S10060 1946 27 SI MM NOT_NAMED 1946-04-16 03:00:00 NR -16.4519 64.3677 main 813 813 _____P________ -1 -16.4519 64.3677 99 10 59
1946101S10060 1946 27 SI MM NOT_NAMED 1946-04-16 06:00:00 NR -16.2000 64.8000 reunion main 867 867 _____O________ -1 -16.2000 64.8000 99 9.90000 9 58
1946101S10060 1946 27 SI MM NOT_NAMED 1946-04-16 09:00:00 NR -15.9886 65.1502 main 915 915 _____P________ -1 -15.9886 65.1502 99 7 57
1946101S10060 1946 27 SI MM NOT_NAMED 1946-04-16 12:00:00 NR -15.8165 65.4249 main 945 945 _____P________ -1 -15.8165 65.4249 99 6 56
1946101S10060 1946 27 SI MM NOT_NAMED 1946-04-16 15:00:00 NR -15.6783 65.6352 main 969 969 _____P________ -1 -15.6783 65.6352 99 4 55
1946101S10060 1946 27 SI MM NOT_NAMED 1946-04-16 18:00:00 NR -15.5685 65.7921 main 994 994 _____P________ -1 -15.5685 65.7921 99 3 53
1946101S10060 1946 27 SI MM NOT_NAMED 1946-04-16 21:00:00 NR -15.4815 65.9063 main 1009 1009 _____P________ -1 -15.4815 65.9063 99 2 51
1946101S10060 1946 27 SI MM NOT_NAMED 1946-04-17 00:00:00 NR -15.4115 65.9886 main 1024 1024 _____P________ -1 -15.4115 65.9886 99 2 47
1946101S10060 1946 27 SI MM NOT_NAMED 1946-04-17 03:00:00 NR -15.3529 66.0496 main 1024 1024 _____P________ -1 -15.3529 66.0496 99 2 43
1946101S10060 1946 27 SI MM NOT_NAMED 1946-04-17 06:00:00 NR -15.3000 66.1000 reunion main 1039 _____O________ -1 -15.3000 66.1000 99 9.90000 1 48

IBTrACS Databaseについて

本データベースは、米国NOAAが公開する1842年以降の世界の熱帯低気圧のベストトラックデータアーカイブInternational Best Track Archive for Climate Stewardship (IBTrACS)を、ウェブで閲覧しやすい形式に変換したものです。

最終更新日:2021-10-25